Time;durP1;ratioP1;P1;durP2;ratioP2;P2;SDS_P1;SDS_P2;PMS_P1;PMS_P2;Temp;Humidity;BMP_temperature;BMP_pressure;BME280_temperature;BME280_humidity;BME280_pressure;Samples;Min_cycle;Max_cycle;Signal;HPM_P1;HPM_P2
2022/06/01 00:02:15;;;;;;;;;;;10.10;99.90;;;;;;5101434;28;19932;-71
2022/06/01 00:04:42;;;;;;;;;;;10.10;99.90;;;;;;5105560;27;19928;-71
2022/06/01 00:07:09;;;;;;;;;;;10.10;99.90;;;;;;5105506;28;19924;-71
2022/06/01 00:09:36;;;;;;;;;;;10.00;99.90;;;;;;5104278;28;19923;-71
2022/06/01 00:12:03;;;;;;;;;;;10.10;99.90;;;;;;5102324;28;20340;-71
2022/06/01 00:14:29;;;;;;;;;;;10.10;99.90;;;;;;5099812;28;20221;-71
2022/06/01 00:16:57;;;;;;;;;;;10.10;99.90;;;;;;5100363;28;20302;-71
2022/06/01 00:19:24;;;;;;;;;;;10.10;99.90;;;;;;5109736;28;19969;-71
2022/06/01 00:24:37;;;;;;;;;;;10.00;99.90;;;;;;5101083;28;19946;-71
2022/06/01 00:27:04;;;;;;;;;;;10.00;99.90;;;;;;5106276;28;19939;-71
2022/06/01 00:29:30;;;;;;;;;;;10.00;99.90;;;;;;5099749;28;19931;-71
2022/06/01 00:31:58;;;;;;;;;;;10.00;99.90;;;;;;5099343;28;19930;-71
2022/06/01 00:34:25;;;;;;;;;;;10.00;99.90;;;;;;5104898;28;19930;-71
2022/06/01 00:36:52;;;;;;;;;;;10.00;99.90;;;;;;5095860;28;20035;-71
2022/06/01 00:39:18;;;;;;;;;;;10.00;99.90;;;;;;5097988;28;19924;-71
2022/06/01 00:41:45;;;;;;;;;;;9.90;99.90;;;;;;5106328;28;20018;-71
2022/06/01 00:44:12;;;;;;;;;;;9.90;99.90;;;;;;5104245;28;20305;-71
2022/06/01 00:46:39;;;;;;;;;;;9.90;99.90;;;;;;5101772;28;20537;-71
2022/06/01 00:49:13;;;;;;;;;;;9.90;99.90;;;;;;5098954;28;19938;-71
2022/06/01 00:51:40;;;;;;;;;;;9.90;99.90;;;;;;5100742;28;19934;-71
2022/06/01 00:54:07;;;;;;;;;;;9.80;99.90;;;;;;5105848;28;20298;-71
2022/06/01 00:56:35;;;;;;;;;;;9.80;99.90;;;;;;5103681;28;19927;-71
2022/06/01 00:59:02;;;;;;;;;;;9.80;99.90;;;;;;5101597;27;20470;-71
2022/06/01 01:01:30;;;;;;;;;;;9.80;99.90;;;;;;5097342;28;19932;-70
2022/06/01 01:03:58;;;;;;;;;;;9.70;99.90;;;;;;5103271;28;19928;-71
2022/06/01 01:06:27;;;;;;;;;;;9.70;99.90;;;;;;5103301;28;19930;-71
2022/06/01 01:08:55;;;;;;;;;;;9.70;99.90;;;;;;5099969;28;19932;-72
2022/06/01 01:11:25;;;;;;;;;;;9.70;99.90;;;;;;5102742;28;19924;-71
2022/06/01 01:13:53;;;;;;;;;;;9.60;99.90;;;;;;5099431;28;20400;-71
2022/06/01 01:16:21;;;;;;;;;;;9.60;99.90;;;;;;5096456;28;20023;-71
2022/06/01 01:18:48;;;;;;;;;;;9.60;99.90;;;;;;5101037;28;19924;-71
2022/06/01 01:21:21;;;;;;;;;;;9.60;99.90;;;;;;5102228;28;20009;-72
2022/06/01 01:23:50;;;;;;;;;;;9.60;99.90;;;;;;5103014;28;20019;-71
2022/06/01 01:26:18;;;;;;;;;;;9.50;99.90;;;;;;5102203;28;19927;-71
2022/06/01 01:28:44;;;;;;;;;;;9.50;99.90;;;;;;5103626;28;19927;-71
2022/06/01 01:31:13;;;;;;;;;;;9.50;99.90;;;;;;5098845;28;19923;-71
2022/06/01 01:33:39;;;;;;;;;;;9.40;99.90;;;;;;5099523;28;19934;-71
2022/06/01 01:36:07;;;;;;;;;;;9.40;99.90;;;;;;5102670;28;20298;-72
2022/06/01 01:38:36;;;;;;;;;;;9.40;99.90;;;;;;5098216;28;20357;-71
2022/06/01 01:41:06;;;;;;;;;;;9.40;99.90;;;;;;5100429;28;19928;-72
2022/06/01 01:43:36;;;;;;;;;;;9.40;99.90;;;;;;5094041;28;19932;-71
2022/06/01 01:46:03;;;;;;;;;;;9.40;99.90;;;;;;5102705;28;19924;-71
2022/06/01 01:48:32;;;;;;;;;;;9.30;99.90;;;;;;5104048;28;19992;-71
2022/06/01 01:50:59;;;;;;;;;;;9.30;99.90;;;;;;5100373;28;19969;-71
2022/06/01 01:53:26;;;;;;;;;;;9.30;99.90;;;;;;5102460;28;19923;-71
2022/06/01 01:55:57;;;;;;;;;;;9.30;99.90;;;;;;5100240;28;20018;-72
2022/06/01 01:58:28;;;;;;;;;;;9.30;99.90;;;;;;5101003;28;20367;-72
2022/06/01 02:00:57;;;;;;;;;;;9.30;99.90;;;;;;5103214;28;19924;-70
2022/06/01 02:03:26;;;;;;;;;;;9.20;99.90;;;;;;5101797;28;20314;-70
2022/06/01 02:06:05;;;;;;;;;;;9.20;99.90;;;;;;5105121;28;19924;-70
2022/06/01 02:08:33;;;;;;;;;;;9.20;99.90;;;;;;5092365;28;19932;-71
2022/06/01 02:13:47;;;;;;;;;;;9.20;99.90;;;;;;5101264;28;20302;-70
2022/06/01 02:16:15;;;;;;;;;;;9.20;99.90;;;;;;5098033;28;20034;-71
2022/06/01 02:18:44;;;;;;;;;;;9.20;99.90;;;;;;5098752;28;19924;-71
2022/06/01 02:21:14;;;;;;;;;;;9.10;99.90;;;;;;5100291;28;20026;-71
2022/06/01 02:23:40;;;;;;;;;;;9.10;99.90;;;;;;5098008;28;19928;-71
2022/06/01 02:26:07;;;;;;;;;;;9.10;99.90;;;;;;5102298;28;19932;-70
2022/06/01 02:28:35;;;;;;;;;;;9.00;99.90;;;;;;5102296;28;19932;-70
2022/06/01 02:31:02;;;;;;;;;;;9.00;99.90;;;;;;5099326;28;19924;-70
2022/06/01 02:33:33;;;;;;;;;;;9.00;99.90;;;;;;5101645;28;20008;-71
2022/06/01 02:36:00;;;;;;;;;;;9.00;99.90;;;;;;5098086;28;19970;-70
2022/06/01 02:38:30;;;;;;;;;;;9.00;99.90;;;;;;5099918;28;19930;-70
2022/06/01 02:40:57;;;;;;;;;;;8.90;99.90;;;;;;5101684;28;19930;-70
2022/06/01 02:43:26;;;;;;;;;;;8.90;99.90;;;;;;5104109;28;20389;-70
2022/06/01 02:45:53;;;;;;;;;;;8.90;99.90;;;;;;5097333;28;20433;-71
2022/06/01 02:48:19;;;;;;;;;;;8.90;99.90;;;;;;5100773;28;19939;-71
2022/06/01 02:50:47;;;;;;;;;;;8.90;99.90;;;;;;5097525;28;20022;-70
2022/06/01 02:53:14;;;;;;;;;;;8.90;99.90;;;;;;5095804;28;19978;-70
2022/06/01 02:55:41;;;;;;;;;;;8.90;99.90;;;;;;5100070;28;20073;-70
2022/06/01 02:58:07;;;;;;;;;;;8.90;99.90;;;;;;5100156;28;20018;-71
2022/06/01 03:00:35;;;;;;;;;;;8.80;99.90;;;;;;5105950;28;20014;-70
2022/06/01 03:03:02;;;;;;;;;;;8.80;99.90;;;;;;5103832;28;19931;-70
2022/06/01 03:05:30;;;;;;;;;;;8.70;99.90;;;;;;5098525;28;20998;-71
2022/06/01 03:07:58;;;;;;;;;;;8.70;99.90;;;;;;5102947;28;19924;-71
2022/06/01 03:10:25;;;;;;;;;;;8.70;99.90;;;;;;5100891;28;19923;-71
2022/06/01 03:12:52;;;;;;;;;;;8.70;99.90;;;;;;5097873;28;19936;-71
2022/06/01 03:15:20;;;;;;;;;;;8.70;99.90;;;;;;5099831;28;20026;-70
2022/06/01 03:17:46;;;;;;;;;;;8.70;99.90;;;;;;5096787;28;20371;-71
2022/06/01 03:20:15;;;;;;;;;;;8.70;99.90;;;;;;5103186;27;19928;-70
2022/06/01 03:22:41;;;;;;;;;;;8.60;99.90;;;;;;5109779;28;19937;-70
2022/06/01 03:25:11;;;;;;;;;;;8.70;99.90;;;;;;5110593;28;20007;-69
2022/06/01 03:27:38;;;;;;;;;;;8.70;99.90;;;;;;5104083;28;19934;-70
2022/06/01 03:30:06;;;;;;;;;;;8.70;99.90;;;;;;5112215;28;19924;-71
2022/06/01 03:32:33;;;;;;;;;;;8.60;99.90;;;;;;5105362;28;19993;-71
2022/06/01 03:35:00;;;;;;;;;;;8.60;99.90;;;;;;5105436;28;19930;-71
2022/06/01 03:37:27;;;;;;;;;;;8.60;99.90;;;;;;5100264;28;19924;-71
2022/06/01 03:39:54;;;;;;;;;;;8.50;99.90;;;;;;5107798;28;19930;-71
2022/06/01 03:42:22;;;;;;;;;;;8.50;99.90;;;;;;5105275;28;19924;-70
2022/06/01 03:47:33;;;;;;;;;;;8.50;99.90;;;;;;5109732;28;20294;-72
2022/06/01 03:50:00;;;;;;;;;;;8.60;99.90;;;;;;5109365;28;20019;-72
2022/06/01 03:52:27;;;;;;;;;;;8.60;99.90;;;;;;5099285;28;19923;-72
2022/06/01 03:54:54;;;;;;;;;;;8.60;99.90;;;;;;5109336;28;19923;-71
2022/06/01 03:57:22;;;;;;;;;;;8.60;99.90;;;;;;5110666;28;19934;-71
2022/06/01 03:59:48;;;;;;;;;;;8.60;99.90;;;;;;5096272;28;20349;-71
2022/06/01 04:02:15;;;;;;;;;;;8.60;99.90;;;;;;5101387;28;19971;-69
2022/06/01 04:04:42;;;;;;;;;;;8.60;99.90;;;;;;5098058;28;19946;-70
2022/06/01 04:07:08;;;;;;;;;;;8.60;99.90;;;;;;5106449;28;19924;-71
2022/06/01 04:09:35;;;;;;;;;;;8.60;99.90;;;;;;5100111;28;19924;-71
2022/06/01 04:12:02;;;;;;;;;;;8.70;99.90;;;;;;5103247;28;20489;-71
2022/06/01 04:14:30;;;;;;;;;;;8.70;99.90;;;;;;5098018;28;19934;-70
2022/06/01 04:16:57;;;;;;;;;;;8.80;99.90;;;;;;5101920;28;19924;-70
2022/06/01 04:19:23;;;;;;;;;;;8.80;99.90;;;;;;5095732;28;20363;-70
2022/06/01 04:21:52;;;;;;;;;;;8.70;99.90;;;;;;5105460;28;19938;-70
2022/06/01 04:24:27;;;;;;;;;;;8.80;99.90;;;;;;5097223;28;19927;-71
2022/06/01 04:26:54;;;;;;;;;;;8.80;99.90;;;;;;5094645;28;20466;-71
2022/06/01 04:29:21;;;;;;;;;;;8.90;99.90;;;;;;5103798;28;20444;-71
2022/06/01 04:31:49;;;;;;;;;;;8.90;99.90;;;;;;5099685;28;20645;-70
2022/06/01 04:34:16;;;;;;;;;;;9.00;99.90;;;;;;5101558;28;19930;-70
2022/06/01 04:36:43;;;;;;;;;;;9.00;99.90;;;;;;5107228;28;19923;-70
2022/06/01 04:39:09;;;;;;;;;;;9.10;99.90;;;;;;5094321;28;19931;-70
2022/06/01 04:41:36;;;;;;;;;;;9.10;99.90;;;;;;5104749;28;19923;-70
2022/06/01 04:44:03;;;;;;;;;;;9.10;99.90;;;;;;5097975;28;19938;-71
2022/06/01 04:46:30;;;;;;;;;;;9.20;99.90;;;;;;5102191;28;19980;-70
2022/06/01 04:48:58;;;;;;;;;;;9.20;99.90;;;;;;5096186;28;19924;-70
2022/06/01 04:51:25;;;;;;;;;;;;;;;;;;5103212;28;19938;-70
2022/06/01 04:53:52;;;;;;;;;;;9.40;99.90;;;;;;5103136;28;20010;-69
2022/06/01 04:56:19;;;;;;;;;;;9.50;99.90;;;;;;5107466;28;20016;-69
2022/06/01 04:58:45;;;;;;;;;;;9.60;99.90;;;;;;5107138;28;19999;-70
2022/06/01 05:01:12;;;;;;;;;;;9.60;99.90;;;;;;5101750;28;19924;-71
2022/06/01 05:03:39;;;;;;;;;;;9.70;99.90;;;;;;5098289;28;19947;-70
2022/06/01 05:06:07;;;;;;;;;;;9.90;99.90;;;;;;5105793;28;19924;-71
2022/06/01 05:08:34;;;;;;;;;;;10.00;99.90;;;;;;5107133;27;20047;-70
2022/06/01 05:11:00;;;;;;;;;;;10.00;99.90;;;;;;5111156;27;20294;-69
2022/06/01 05:13:27;;;;;;;;;;;10.10;99.90;;;;;;5110385;28;19924;-70
2022/06/01 05:15:54;;;;;;;;;;;10.20;99.90;;;;;;5105358;28;19924;-69
2022/06/01 05:18:21;;;;;;;;;;;10.30;99.90;;;;;;5103149;28;19927;-70
2022/06/01 05:20:48;;;;;;;;;;;10.40;99.90;;;;;;5105583;28;19930;-70
2022/06/01 05:23:17;;;;;;;;;;;10.60;99.90;;;;;;5103373;27;20259;-70
2022/06/01 05:25:44;;;;;;;;;;;10.80;99.90;;;;;;5107846;27;19927;-69
2022/06/01 05:28:12;;;;;;;;;;;;;;;;;;5112729;27;19927;-68
2022/06/01 05:30:39;;;;;;;;;;;11.10;99.90;;;;;;5092501;28;19928;-69
2022/06/01 05:33:05;;;;;;;;;;;11.20;99.90;;;;;;5105791;28;20297;-70
2022/06/01 05:35:32;;;;;;;;;;;11.30;99.90;;;;;;5097535;27;20291;-69
2022/06/01 05:37:59;;;;;;;;;;;11.30;99.90;;;;;;5097956;28;19962;-69
2022/06/01 05:40:27;;;;;;;;;;;11.40;99.90;;;;;;5104993;28;20002;-69
2022/06/01 05:42:53;;;;;;;;;;;11.50;99.90;;;;;;5096692;27;19924;-69
2022/06/01 05:45:20;;;;;;;;;;;11.60;99.90;;;;;;5110152;27;20019;-70
2022/06/01 05:47:47;;;;;;;;;;;11.70;99.90;;;;;;5119222;27;20296;-70
2022/06/01 05:50:14;;;;;;;;;;;11.80;99.90;;;;;;5092110;28;20537;-70
2022/06/01 05:52:40;;;;;;;;;;;11.80;99.90;;;;;;5108822;28;19981;-69
2022/06/01 05:55:07;;;;;;;;;;;;;;;;;;5102126;28;19978;-70
2022/06/01 05:57:36;;;;;;;;;;;12.10;99.90;;;;;;5097029;28;20290;-70
2022/06/01 06:00:04;;;;;;;;;;;12.30;99.90;;;;;;5096779;28;19925;-70
2022/06/01 06:02:31;;;;;;;;;;;12.40;99.90;;;;;;5092081;28;19928;-69
2022/06/01 06:04:59;;;;;;;;;;;12.50;99.90;;;;;;5098456;28;20273;-71
2022/06/01 06:07:26;;;;;;;;;;;12.60;99.90;;;;;;5096165;28;20088;-70
2022/06/01 06:09:52;;;;;;;;;;;12.70;99.90;;;;;;5103755;28;19927;-70
2022/06/01 06:12:19;;;;;;;;;;;12.90;99.90;;;;;;5107141;28;20019;-68
2022/06/01 06:14:48;;;;;;;;;;;14.00;99.90;;;;;;5104498;28;19946;-69
2022/06/01 06:17:15;;;;;;;;;;;14.80;99.90;;;;;;5102153;28;19925;-69
2022/06/01 06:19:41;;;;;;;;;;;15.90;99.90;;;;;;5106087;28;20330;-69
2022/06/01 06:22:08;;;;;;;;;;;17.50;99.90;;;;;;5103956;28;19932;-67
2022/06/01 06:24:34;;;;;;;;;;;18.70;99.90;;;;;;5109075;28;20015;-67
2022/06/01 06:27:01;;;;;;;;;;;18.50;99.90;;;;;;5096645;28;19924;-68
2022/06/01 06:29:28;;;;;;;;;;;18.10;99.90;;;;;;5101095;27;19923;-69
2022/06/01 06:31:56;;;;;;;;;;;17.60;99.90;;;;;;5098626;28;20425;-68
2022/06/01 06:34:23;;;;;;;;;;;17.90;99.90;;;;;;5100235;28;19931;-68
2022/06/01 06:36:49;;;;;;;;;;;18.20;99.90;;;;;;5103122;28;20375;-68
2022/06/01 06:39:16;;;;;;;;;;;17.30;99.90;;;;;;5108222;28;19924;-69
2022/06/01 06:41:43;;;;;;;;;;;17.50;99.90;;;;;;5114319;27;19930;-68
2022/06/01 06:44:09;;;;;;;;;;;18.10;99.90;;;;;;5102168;28;19924;-69
2022/06/01 06:46:36;;;;;;;;;;;18.60;99.90;;;;;;5109878;28;19930;-69
2022/06/01 06:49:04;;;;;;;;;;;19.20;99.40;;;;;;5102925;28;19928;-69
2022/06/01 06:51:31;;;;;;;;;;;20.60;96.80;;;;;;5108954;28;19930;-69
2022/06/01 06:53:58;;;;;;;;;;;20.30;94.00;;;;;;5094222;28;19932;-68
2022/06/01 06:56:24;;;;;;;;;;;20.10;95.00;;;;;;5095770;28;19931;-69
2022/06/01 06:58:51;;;;;;;;;;;20.10;93.30;;;;;;5097898;28;20026;-68
2022/06/01 07:01:18;;;;;;;;;;;20.10;93.40;;;;;;5097984;28;19932;-69
2022/06/01 07:03:45;;;;;;;;;;;20.60;92.50;;;;;;5097083;28;19927;-69
2022/06/01 07:06:13;;;;;;;;;;;20.80;91.30;;;;;;5099734;28;19924;-68
2022/06/01 07:08:41;;;;;;;;;;;20.60;91.40;;;;;;5100819;28;19931;-68
2022/06/01 07:11:08;;;;;;;;;;;20.20;92.30;;;;;;5099204;28;19932;-68
2022/06/01 07:13:35;;;;;;;;;;;20.20;92.20;;;;;;5100129;28;20410;-68
2022/06/01 07:16:03;;;;;;;;;;;20.40;93.00;;;;;;5098997;28;22214;-67
2022/06/01 07:18:30;;;;;;;;;;;21.10;90.60;;;;;;5101653;28;20251;-68
2022/06/01 07:20:58;;;;;;;;;;;20.80;90.40;;;;;;5097315;28;19924;-67
2022/06/01 07:23:26;;;;;;;;;;;21.20;90.00;;;;;;5103933;28;19931;-68
2022/06/01 07:25:53;;;;;;;;;;;21.10;89.10;;;;;;5094681;28;19928;-67
2022/06/01 07:28:21;;;;;;;;;;;20.60;89.40;;;;;;5096575;28;19932;-71
2022/06/01 07:30:49;;;;;;;;;;;21.10;89.10;;;;;;5093701;28;19924;-68
2022/06/01 07:33:16;;;;;;;;;;;21.90;86.20;;;;;;5095082;28;19927;-68
2022/06/01 07:35:42;;;;;;;;;;;23.30;82.70;;;;;;5088496;28;19932;-67
2022/06/01 07:43:39;;;;;;;;;;;22.10;81.20;;;;;;5089333;28;20401;-67
2022/06/01 07:46:06;;;;;;;;;;;22.20;83.10;;;;;;5098916;28;20023;-68
2022/06/01 07:48:34;;;;;;;;;;;23.40;90.30;;;;;;5091696;28;19928;-68
2022/06/01 07:51:00;;;;;;;;;;;24.30;84.80;;;;;;5101817;28;20830;-68
2022/06/01 07:53:27;;;;;;;;;;;23.80;82.40;;;;;;5098975;28;20280;-69
2022/06/01 07:55:55;;;;;;;;;;;23.70;83.90;;;;;;5096741;28;19946;-69
2022/06/01 07:58:21;;;;;;;;;;;24.40;80.90;;;;;;5097387;28;20022;-69
2022/06/01 08:00:48;;;;;;;;;;;;;;;;;;5101440;28;19924;-69
2022/06/01 08:03:15;;;;;;;;;;;;;;;;;;5105113;28;20008;-69
2022/06/01 08:05:42;;;;;;;;;;;23.50;38.40;;;;;;5103635;28;20010;-68
2022/06/01 08:08:09;;;;;;;;;;;22.80;40.90;;;;;;5100246;27;19931;-68
2022/06/01 08:10:36;;;;;;;;;;;22.70;41.40;;;;;;5096831;28;20038;-67
2022/06/01 08:13:07;;;;;;;;;;;22.20;40.00;;;;;;5101768;27;20293;-67
2022/06/01 08:15:34;;;;;;;;;;;21.20;42.40;;;;;;5097415;27;19971;-68
2022/06/01 08:18:01;;;;;;;;;;;20.00;45.50;;;;;;5097962;28;20463;-67
2022/06/01 08:20:29;;;;;;;;;;;19.80;47.60;;;;;;5107925;28;19939;-67
2022/06/01 08:22:56;;;;;;;;;;;19.30;47.60;;;;;;5107583;28;20386;-68
2022/06/01 08:25:23;;;;;;;;;;;18.90;49.00;;;;;;5098561;28;20023;-67
2022/06/01 08:27:50;;;;;;;;;;;19.40;49.40;;;;;;5108591;28;19955;-67
2022/06/01 08:30:19;;;;;;;;;;;20.60;47.10;;;;;;5105481;27;19967;-67
2022/06/01 08:32:46;;;;;;;;;;;20.80;44.20;;;;;;5100012;28;20031;-67
2022/06/01 08:35:16;;;;;;;;;;;20.20;44.60;;;;;;5101589;28;19932;-68
2022/06/01 08:37:43;;;;;;;;;;;20.70;44.00;;;;;;5102195;27;20348;-68
2022/06/01 08:40:10;;;;;;;;;;;21.00;42.20;;;;;;5104284;27;20039;-67
2022/06/01 08:42:49;;;;;;;;;;;20.30;43.10;;;;;;5104317;28;20136;-67
2022/06/01 08:45:16;;;;;;;;;;;19.30;46.20;;;;;;5104950;27;19924;-67
2022/06/01 08:47:44;;;;;;;;;;;18.70;49.00;;;;;;5104212;27;19924;-68
2022/06/01 08:50:16;;;;;;;;;;;18.90;49.60;;;;;;5105084;28;19933;-68
2022/06/01 08:52:43;;;;;;;;;;;20.10;47.40;;;;;;5109021;27;20309;-68
2022/06/01 08:55:10;;;;;;;;;;;20.80;45.10;;;;;;5092188;28;20056;-69
2022/06/01 08:57:40;;;;;;;;;;;20.60;43.80;;;;;;5099944;27;20018;-68
2022/06/01 09:00:09;;;;;;;;;;;19.70;44.90;;;;;;5100877;27;19924;-67
2022/06/01 09:02:41;;;;;;;;;;;18.70;47.10;;;;;;5104753;27;19924;-68
2022/06/01 09:05:12;;;;;;;;;;;18.20;50.20;;;;;;5108146;27;19930;-67
2022/06/01 09:07:41;;;;;;;;;;;18.20;51.10;;;;;;5109782;27;19923;-67
2022/06/01 09:10:15;;;;;;;;;;;18.10;50.40;;;;;;5104110;27;20267;-67
2022/06/01 09:12:42;;;;;;;;;;;17.80;51.90;;;;;;5091019;28;19931;-67
2022/06/01 09:15:12;;;;;;;;;;;18.40;52.50;;;;;;5097046;28;20448;-67
2022/06/01 09:17:39;;;;;;;;;;;19.80;47.70;;;;;;5091487;28;20290;-67
2022/06/01 09:22:53;;;;;;;;;;;20.00;49.80;;;;;;5096104;27;20040;-67
2022/06/01 09:25:26;;;;;;;;;;;22.10;42.20;;;;;;5103152;28;20059;-68
2022/06/01 09:27:59;;;;;;;;;;;21.90;35.20;;;;;;5090168;28;19924;-67
2022/06/01 09:30:26;;;;;;;;;;;21.60;33.90;;;;;;5103610;27;19924;-68
2022/06/01 09:33:02;;;;;;;;;;;21.10;36.50;;;;;;5103295;27;19927;-67
2022/06/01 09:35:30;;;;;;;;;;;20.50;38.60;;;;;;5095377;27;19928;-68
2022/06/01 09:38:02;;;;;;;;;;;20.20;36.50;;;;;;5099376;27;19938;-69
2022/06/01 09:40:31;;;;;;;;;;;20.80;36.80;;;;;;5099122;27;19964;-68
2022/06/01 09:43:00;;;;;;;;;;;21.40;34.40;;;;;;5098591;28;20028;-66
2022/06/01 09:45:27;;;;;;;;;;;22.10;31.20;;;;;;5100746;28;19924;-66
2022/06/01 09:47:55;;;;;;;;;;;23.50;30.00;;;;;;5104877;27;19927;-67
2022/06/01 09:50:24;;;;;;;;;;;23.50;28.60;;;;;;5093791;28;20010;-66
2022/06/01 09:52:52;;;;;;;;;;;22.00;29.00;;;;;;5096760;28;19924;-66
2022/06/01 09:55:22;;;;;;;;;;;21.50;31.40;;;;;;5099588;27;20569;-66
2022/06/01 09:58:00;;;;;;;;;;;21.10;31.90;;;;;;5109538;27;19979;-68
2022/06/01 10:06:06;;;;;;;;;;;20.00;37.00;;;;;;5101726;27;19943;-68
2022/06/01 10:08:41;;;;;;;;;;;20.00;35.30;;;;;;5102473;27;19932;-70
2022/06/01 10:11:22;;;;;;;;;;;19.60;36.20;;;;;;5098675;27;19924;-69
2022/06/01 10:13:50;;;;;;;;;;;19.20;36.40;;;;;;5110584;27;19930;-70
2022/06/01 10:16:23;;;;;;;;;;;19.00;36.30;;;;;;5104382;27;19934;-69
2022/06/01 10:18:51;;;;;;;;;;;19.10;35.50;;;;;;5097418;28;20305;-68
2022/06/01 10:21:21;;;;;;;;;;;19.20;35.00;;;;;;5094960;28;19944;-68
2022/06/01 10:23:51;;;;;;;;;;;19.40;36.40;;;;;;5102364;27;19942;-70
2022/06/01 10:26:21;;;;;;;;;;;19.50;37.00;;;;;;5112275;27;19923;-68
2022/06/01 10:28:51;;;;;;;;;;;19.30;36.20;;;;;;5105158;27;20050;-69
2022/06/01 10:31:24;;;;;;;;;;;19.10;35.90;;;;;;5106634;28;19970;-68
2022/06/01 10:33:55;;;;;;;;;;;18.80;37.10;;;;;;5099369;28;19932;-68
2022/06/01 10:36:26;;;;;;;;;;;18.50;38.30;;;;;;5094929;28;19930;-69
2022/06/01 10:38:55;;;;;;;;;;;18.40;38.50;;;;;;5095134;28;19938;-67
2022/06/01 10:41:26;;;;;;;;;;;18.50;39.30;;;;;;5102632;28;20307;-68
2022/06/01 10:43:55;;;;;;;;;;;19.00;39.30;;;;;;5097593;27;20065;-66
2022/06/01 10:46:31;;;;;;;;;;;19.20;36.20;;;;;;5108730;27;19923;-68
2022/06/01 10:49:05;;;;;;;;;;;18.90;37.40;;;;;;5094891;28;19932;-67
2022/06/01 10:51:35;;;;;;;;;;;19.00;36.30;;;;;;5097067;28;19923;-66
2022/06/01 10:54:04;;;;;;;;;;;18.90;37.10;;;;;;5095370;28;19928;-68
2022/06/01 10:56:33;;;;;;;;;;;18.50;37.50;;;;;;5095436;28;20385;-68
2022/06/01 10:59:02;;;;;;;;;;;17.80;39.30;;;;;;5088557;28;19999;-68
2022/06/01 11:01:40;;;;;;;;;;;17.60;40.30;;;;;;5101085;28;19924;-69
2022/06/01 11:04:18;;;;;;;;;;;17.70;39.90;;;;;;5124572;28;19930;-67
2022/06/01 11:07:00;;;;;;;;;;;17.80;39.40;;;;;;5091231;28;19928;-67
2022/06/01 11:09:31;;;;;;;;;;;18.00;39.00;;;;;;5111684;28;20032;-67
2022/06/01 11:12:06;;;;;;;;;;;18.00;37.60;;;;;;5108359;28;20007;-67
2022/06/01 11:14:42;;;;;;;;;;;17.80;38.10;;;;;;5101596;28;19943;-66
2022/06/01 11:17:13;;;;;;;;;;;17.60;39.20;;;;;;5101538;28;19924;-67
2022/06/01 11:19:45;;;;;;;;;;;17.50;39.10;;;;;;5093659;28;19936;-68
2022/06/01 11:22:18;;;;;;;;;;;17.60;39.80;;;;;;5098152;28;19974;-67
2022/06/01 11:24:51;;;;;;;;;;;17.80;36.90;;;;;;5096029;28;20532;-68
2022/06/01 11:27:31;;;;;;;;;;;17.80;37.20;;;;;;5107168;28;20228;-69
2022/06/01 11:30:10;;;;;;;;;;;17.90;36.60;;;;;;5109378;28;19923;-68
2022/06/01 11:32:53;;;;;;;;;;;17.90;37.30;;;;;;5094255;28;20301;-68
2022/06/01 11:35:33;;;;;;;;;;;18.00;35.90;;;;;;5116401;22;19929;-68
2022/06/01 11:38:12;;;;;;;;;;;18.00;36.30;;;;;;5001358;28;20753;-68
2022/06/01 11:41:03;;;;;;;;;;;17.90;36.10;;;;;;5000342;28;19985;-70
2022/06/01 11:43:39;;;;;;;;;;;17.70;35.20;;;;;;5001628;28;19926;-69
2022/06/01 11:46:15;;;;;;;;;;;17.60;33.30;;;;;;5005144;28;19925;-69
2022/06/01 11:49:07;;;;;;;;;;;17.60;32.90;;;;;;5011057;28;20460;-68
2022/06/01 11:51:49;;;;;;;;;;;17.80;33.80;;;;;;5000903;28;19934;-67
2022/06/01 11:54:49;;;;;;;;;;;17.90;34.40;;;;;;5004176;28;19926;-68
2022/06/01 11:57:24;;;;;;;;;;;17.80;36.90;;;;;;5011416;28;19925;-68
2022/06/01 12:00:05;;;;;;;;;;;17.70;37.60;;;;;;5011355;28;19925;-68
2022/06/01 12:03:05;;;;;;;;;;;17.50;39.40;;;;;;5030098;28;19992;-68
2022/06/01 12:05:40;;;;;;;;;;;17.70;40.50;;;;;;5006342;28;20288;-68
2022/06/01 12:08:08;;;;;;;;;;;18.10;40.30;;;;;;5007207;28;20017;-67
2022/06/01 12:10:53;;;;;;;;;;;18.40;38.40;;;;;;4991430;28;19926;-68
2022/06/01 12:13:24;;;;;;;;;;;18.70;36.10;;;;;;4998706;28;20398;-68
2022/06/01 12:16:05;;;;;;;;;;;18.50;37.30;;;;;;4993691;28;19940;-68
2022/06/01 12:18:33;;;;;;;;;;;18.70;35.90;;;;;;4998980;28;19925;-68
2022/06/01 12:21:27;;;;;;;;;;;19.00;35.20;;;;;;5001138;28;20008;-68
2022/06/01 12:29:52;;;;;;;;;;;18.80;33.50;;;;;;5000005;28;20028;-68
2022/06/01 12:32:19;;;;;;;;;;;18.90;33.60;;;;;;5004684;28;19962;-68
2022/06/01 12:34:53;;;;;;;;;;;18.90;33.50;;;;;;4995834;28;20392;-68
2022/06/01 12:37:22;;;;;;;;;;;18.60;33.60;;;;;;4992237;28;19949;-69
2022/06/01 12:39:52;;;;;;;;;;;18.70;33.70;;;;;;4997624;28;19925;-69
2022/06/01 12:42:20;;;;;;;;;;;18.60;32.10;;;;;;4996426;28;19933;-69
2022/06/01 12:44:49;;;;;;;;;;;18.60;31.40;;;;;;4997488;28;20396;-70
2022/06/01 12:47:22;;;;;;;;;;;18.50;31.40;;;;;;4996283;28;19947;-69
2022/06/01 12:49:48;;;;;;;;;;;18.40;32.70;;;;;;5004015;28;19925;-70
2022/06/01 12:52:19;;;;;;;;;;;18.30;33.90;;;;;;4989752;28;19936;-69
2022/06/01 12:54:53;;;;;;;;;;;18.60;34.70;;;;;;4999821;28;19929;-70
2022/06/01 12:57:24;;;;;;;;;;;18.90;34.30;;;;;;5003835;28;19932;-70
2022/06/01 12:59:56;;;;;;;;;;;19.30;34.10;;;;;;4998179;28;20060;-69
2022/06/01 13:02:23;;;;;;;;;;;19.70;32.50;;;;;;5009791;28;19926;-68
2022/06/01 13:04:53;;;;;;;;;;;20.10;31.90;;;;;;4997867;28;20253;-69
2022/06/01 13:07:23;;;;;;;;;;;20.00;31.40;;;;;;4994427;28;19925;-70
2022/06/01 13:09:57;;;;;;;;;;;19.80;31.80;;;;;;4998269;28;20095;-68
2022/06/01 13:12:28;;;;;;;;;;;19.70;30.00;;;;;;4995507;28;19934;-67
2022/06/01 13:14:54;;;;;;;;;;;19.50;31.50;;;;;;5000010;28;19952;-69
2022/06/01 13:17:25;;;;;;;;;;;19.30;33.10;;;;;;4997571;28;20419;-70
2022/06/01 13:19:59;;;;;;;;;;;18.30;37.00;;;;;;5007908;28;19932;-69
2022/06/01 13:22:30;;;;;;;;;;;17.90;39.20;;;;;;5002070;28;19937;-71
2022/06/01 13:24:59;;;;;;;;;;;17.70;41.60;;;;;;5006944;28;19925;-67
2022/06/01 13:27:26;;;;;;;;;;;17.60;41.90;;;;;;5003299;28;20368;-70
2022/06/01 13:29:58;;;;;;;;;;;17.70;41.60;;;;;;5007067;28;20292;-69
2022/06/01 13:32:29;;;;;;;;;;;18.10;41.10;;;;;;5007085;28;19962;-69
2022/06/01 13:34:56;;;;;;;;;;;18.00;40.90;;;;;;4996803;28;19965;-69
2022/06/01 13:37:25;;;;;;;;;;;18.00;40.70;;;;;;5000423;28;19976;-68
2022/06/01 13:39:56;;;;;;;;;;;18.00;41.40;;;;;;5010689;28;20344;-68
2022/06/01 13:42:31;;;;;;;;;;;18.00;41.00;;;;;;5011121;28;19925;-69
2022/06/01 13:45:07;;;;;;;;;;;18.10;40.10;;;;;;5008664;28;19926;-69
2022/06/01 13:47:35;;;;;;;;;;;18.00;38.90;;;;;;5007395;28;19940;-70
2022/06/01 13:50:04;;;;;;;;;;;18.10;38.60;;;;;;5010476;28;20351;-70
2022/06/01 13:52:32;;;;;;;;;;;18.50;37.50;;;;;;5000236;28;19925;-69
2022/06/01 13:55:13;;;;;;;;;;;18.90;36.50;;;;;;5006029;28;19925;-68
2022/06/01 13:57:49;;;;;;;;;;;19.20;35.30;;;;;;4995072;28;19955;-69
2022/06/01 14:00:21;;;;;;;;;;;19.30;34.30;;;;;;4999415;28;19931;-68
2022/06/01 14:02:52;;;;;;;;;;;19.20;34.40;;;;;;4993341;28;19933;-68
2022/06/01 14:05:20;;;;;;;;;;;19.20;34.80;;;;;;4994344;28;19944;-68
2022/06/01 14:07:49;;;;;;;;;;;19.20;34.70;;;;;;4994575;28;19930;-69
2022/06/01 14:10:17;;;;;;;;;;;19.20;33.40;;;;;;4999806;28;20041;-67
2022/06/01 14:12:44;;;;;;;;;;;19.20;31.00;;;;;;5001114;28;20374;-67
2022/06/01 14:15:12;;;;;;;;;;;18.80;31.80;;;;;;4990717;28;19938;-68
2022/06/01 14:17:41;;;;;;;;;;;18.70;31.60;;;;;;4991558;28;20376;-68
2022/06/01 14:20:09;;;;;;;;;;;18.90;30.50;;;;;;4992116;28;20020;-69
2022/06/01 14:22:36;;;;;;;;;;;19.20;28.90;;;;;;4993851;28;20337;-69
2022/06/01 14:30:48;;;;;;;;;;;19.30;27.80;;;;;;5015759;28;19932;-68
2022/06/01 14:33:14;;;;;;;;;;;19.20;27.70;;;;;;5002901;28;19929;-67
2022/06/01 14:35:43;;;;;;;;;;;18.90;27.90;;;;;;5004057;28;20473;-68
2022/06/01 14:38:11;;;;;;;;;;;18.80;28.60;;;;;;5021482;28;20016;-69
2022/06/01 14:40:38;;;;;;;;;;;18.90;27.90;;;;;;5007404;28;20276;-69
2022/06/01 14:43:07;;;;;;;;;;;18.90;27.40;;;;;;5000695;28;20024;-68
2022/06/01 14:45:34;;;;;;;;;;;19.20;28.00;;;;;;4999762;28;19975;-69
2022/06/01 14:48:03;;;;;;;;;;;19.50;26.70;;;;;;4999768;28;19991;-67
2022/06/01 14:50:30;;;;;;;;;;;19.40;26.30;;;;;;5000819;28;19925;-67
2022/06/01 14:52:59;;;;;;;;;;;18.90;26.20;;;;;;5007260;28;19930;-68
2022/06/01 14:55:26;;;;;;;;;;;18.80;27.30;;;;;;4997786;28;20110;-69
2022/06/01 14:57:53;;;;;;;;;;;19.00;26.80;;;;;;4988112;28;20033;-68
2022/06/01 15:00:21;;;;;;;;;;;18.80;27.00;;;;;;4997356;28;20033;-68
2022/06/01 15:02:50;;;;;;;;;;;18.70;27.60;;;;;;5000485;28;19932;-68
2022/06/01 15:05:16;;;;;;;;;;;18.60;26.40;;;;;;5003310;28;20041;-67
2022/06/01 15:07:43;;;;;;;;;;;19.00;26.80;;;;;;5003484;28;20411;-68
2022/06/01 15:10:10;;;;;;;;;;;19.00;25.90;;;;;;5010521;28;19925;-68